createdAt,value
2018-09-05T00:00:55.960Z,2.27
2018-09-05T00:03:23.675Z,2.50
2018-09-05T00:05:51.483Z,2.90
2018-09-05T00:08:19.250Z,2.73
2018-09-05T00:10:47.024Z,2.50
2018-09-05T00:13:14.776Z,2.57
2018-09-05T00:15:42.487Z,2.33
2018-09-05T00:18:10.172Z,1.97
2018-09-05T00:20:37.868Z,2.20
2018-09-05T00:23:05.589Z,2.13
2018-09-05T00:25:33.429Z,2.60
2018-09-05T00:28:01.100Z,2.63
2018-09-05T00:30:28.800Z,2.37
2018-09-05T00:32:56.532Z,1.90
2018-09-05T00:35:24.257Z,2.60
2018-09-05T00:37:51.943Z,1.87
2018-09-05T00:40:19.872Z,1.70
2018-09-05T00:42:47.984Z,1.70
2018-09-05T00:45:15.701Z,2.00
2018-09-05T00:47:43.498Z,1.97
2018-09-05T00:50:11.188Z,2.50
2018-09-05T00:52:38.940Z,2.20
2018-09-05T00:55:06.677Z,1.57
2018-09-05T00:57:34.389Z,1.63
2018-09-05T01:00:02.198Z,1.70
2018-09-05T01:02:30.005Z,1.60
2018-09-05T01:04:57.744Z,1.80
2018-09-05T01:07:26.750Z,1.70
2018-09-05T01:09:54.486Z,1.83
2018-09-05T01:12:23.160Z,1.80
2018-09-05T01:14:52.429Z,1.60
2018-09-05T01:17:20.543Z,1.73
2018-09-05T01:19:48.242Z,2.43
2018-09-05T01:22:15.932Z,2.20
2018-09-05T01:24:43.657Z,2.60
2018-09-05T01:27:11.869Z,2.00
2018-09-05T01:29:40.296Z,1.63
2018-09-05T01:32:09.107Z,1.30
2018-09-05T01:34:37.280Z,2.00
2018-09-05T01:37:05.104Z,1.90
2018-09-05T01:39:32.796Z,1.80
2018-09-05T01:42:00.500Z,2.10
2018-09-05T01:44:28.180Z,1.83
2018-09-05T01:46:55.851Z,1.87
2018-09-05T01:49:23.644Z,1.50
2018-09-05T01:51:55.429Z,2.40
2018-09-05T01:54:23.169Z,2.13
2018-09-05T01:56:51.279Z,1.77
2018-09-05T01:59:18.969Z,1.43
2018-09-05T02:01:47.292Z,1.77
2018-09-05T02:04:15.008Z,1.60
2018-09-05T02:06:42.737Z,1.90
2018-09-05T02:09:12.088Z,2.50
2018-09-05T02:11:39.796Z,2.00
2018-09-05T02:14:07.483Z,1.97
2018-09-05T02:16:35.300Z,1.70
2018-09-05T02:19:09.612Z,1.73
2018-09-05T02:21:37.393Z,1.70
2018-09-05T02:24:05.261Z,2.00
2018-09-05T02:26:33.080Z,1.80
2018-09-05T02:29:00.848Z,2.00
2018-09-05T02:31:28.900Z,2.10
2018-09-05T02:33:56.615Z,1.83
2018-09-05T02:36:24.339Z,1.80
2018-09-05T02:38:52.071Z,2.70
2018-09-05T02:41:19.845Z,2.10
2018-09-05T02:43:53.008Z,2.33
2018-09-05T02:46:20.737Z,1.47
2018-09-05T02:48:48.423Z,2.23
2018-09-05T02:51:16.144Z,1.90
2018-09-05T02:53:43.828Z,2.77
2018-09-05T02:56:11.505Z,2.27
2018-09-05T02:58:39.195Z,1.67
2018-09-05T03:01:06.878Z,1.90
2018-09-05T03:03:34.548Z,1.93
2018-09-05T03:06:02.251Z,2.07
2018-09-05T03:08:29.941Z,1.80
2018-09-05T03:10:57.672Z,1.90
2018-09-05T03:13:25.371Z,2.60
2018-09-05T03:15:53.060Z,2.00
2018-09-05T03:18:20.778Z,2.07
2018-09-05T03:20:48.479Z,1.47
2018-09-05T03:23:16.194Z,1.70
2018-09-05T03:25:43.916Z,2.00
2018-09-05T03:28:11.620Z,2.43
2018-09-05T03:30:39.944Z,1.80
2018-09-05T03:33:07.925Z,2.20
2018-09-05T03:35:35.708Z,2.20
2018-09-05T03:38:03.624Z,1.60
2018-09-05T03:40:31.309Z,1.60
2018-09-05T03:42:59.074Z,1.90
2018-09-05T03:45:26.794Z,2.00
2018-09-05T03:47:54.477Z,2.03
2018-09-05T03:50:22.177Z,1.87
2018-09-05T03:52:49.859Z,1.93
2018-09-05T03:55:17.576Z,2.00
2018-09-05T03:57:45.248Z,1.80
2018-09-05T04:00:13.153Z,2.00
2018-09-05T04:02:40.842Z,1.73
2018-09-05T04:05:08.671Z,1.83
2018-09-05T04:07:36.379Z,1.80
2018-09-05T04:10:04.184Z,1.70
2018-09-05T04:12:36.376Z,1.70
2018-09-05T04:15:04.488Z,1.70
2018-09-05T04:17:32.173Z,2.13
2018-09-05T04:19:59.895Z,2.20
2018-09-05T04:22:27.620Z,2.20
2018-09-05T04:24:55.292Z,2.03
2018-09-05T04:27:23.041Z,2.40
2018-09-05T04:29:50.734Z,1.80
2018-09-05T04:32:18.436Z,1.80
2018-09-05T04:34:46.153Z,2.10
2018-09-05T04:37:13.842Z,1.90
2018-09-05T04:39:41.564Z,2.07
2018-09-05T04:42:09.272Z,2.40
2018-09-05T04:44:36.959Z,2.33
2018-09-05T04:47:04.664Z,1.83
2018-09-05T04:49:32.406Z,2.20
2018-09-05T04:52:00.118Z,1.57
2018-09-05T04:54:27.797Z,2.13
2018-09-05T04:56:55.482Z,1.97
2018-09-05T04:59:23.220Z,1.90
2018-09-05T05:01:50.909Z,1.77
2018-09-05T05:04:18.605Z,1.70
2018-09-05T05:06:46.350Z,1.50
2018-09-05T05:09:14.017Z,1.80
2018-09-05T05:11:41.716Z,1.50
2018-09-05T05:14:09.997Z,1.43
2018-09-05T05:16:37.682Z,1.50
2018-09-05T05:19:05.452Z,1.20
2018-09-05T05:21:33.224Z,1.40
2018-09-05T05:24:00.937Z,1.13
2018-09-05T05:26:28.948Z,1.40
2018-09-05T05:28:56.721Z,1.03
2018-09-05T05:31:24.489Z,1.20
2018-09-05T05:33:52.193Z,1.30
2018-09-05T05:36:19.942Z,1.30
2018-09-05T05:38:47.660Z,1.30
2018-09-05T05:41:15.624Z,1.03
2018-09-05T05:43:43.450Z,1.17
2018-09-05T05:46:11.167Z,1.47
2018-09-05T05:48:38.988Z,1.40
2018-09-05T05:51:06.923Z,0.93
2018-09-05T05:53:34.718Z,1.17
2018-09-05T05:56:02.531Z,1.67
2018-09-05T05:58:30.532Z,1.47
2018-09-05T06:00:58.309Z,1.10
2018-09-05T06:03:26.227Z,1.40
2018-09-05T06:05:54.098Z,1.20
2018-09-05T06:08:21.863Z,1.30
2018-09-05T06:10:49.569Z,1.30
2018-09-05T06:13:17.249Z,1.30
2018-09-05T06:15:44.960Z,1.33
2018-09-05T06:18:12.755Z,1.50
2018-09-05T06:20:40.436Z,1.47
2018-09-05T06:23:08.136Z,1.30
2018-09-05T06:25:35.903Z,1.73
2018-09-05T06:28:03.608Z,1.50
2018-09-05T06:30:31.700Z,1.37
2018-09-05T06:32:59.348Z,1.30
2018-09-05T06:35:27.117Z,1.77
2018-09-05T06:37:54.803Z,1.20
2018-09-05T06:40:22.644Z,1.40
2018-09-05T06:42:50.319Z,1.43
2018-09-05T06:45:18.017Z,1.30
2018-09-05T06:47:45.714Z,1.23
2018-09-05T06:50:13.426Z,1.10
2018-09-05T06:52:41.164Z,1.23
2018-09-05T06:55:08.908Z,1.50
2018-09-05T06:57:36.693Z,1.27
2018-09-05T07:00:54.620Z,1.23
2018-09-05T07:03:22.890Z,1.20
2018-09-05T07:05:50.666Z,1.60
2018-09-05T07:08:18.364Z,1.10
2018-09-05T07:10:46.159Z,1.20
2018-09-05T07:13:13.880Z,1.67
2018-09-05T07:15:41.581Z,1.47
2018-09-05T07:18:09.332Z,1.17
2018-09-05T07:20:37.084Z,1.93
2018-09-05T07:23:04.832Z,1.10
2018-09-05T07:25:32.532Z,1.40
2018-09-05T07:28:00.269Z,1.30
2018-09-05T07:30:28.083Z,1.10
2018-09-05T07:32:55.699Z,1.43
2018-09-05T07:35:23.397Z,1.33
2018-09-05T07:37:51.155Z,1.17
2018-09-05T07:40:18.987Z,1.10
2018-09-05T07:42:46.659Z,1.13
2018-09-05T07:45:14.459Z,1.10
2018-09-05T07:47:42.178Z,1.30
2018-09-05T07:50:09.903Z,1.10
2018-09-05T07:52:37.659Z,1.40
2018-09-05T07:55:05.548Z,1.20
2018-09-05T07:57:33.268Z,1.20
2018-09-05T08:00:01.002Z,1.40
2018-09-05T08:02:28.708Z,1.40
2018-09-05T08:04:56.440Z,1.30
2018-09-05T08:07:24.176Z,0.83
2018-09-05T08:09:51.851Z,1.00
2018-09-05T08:12:19.567Z,1.30
2018-09-05T08:14:47.308Z,1.13
2018-09-05T08:17:15.008Z,1.03
2018-09-05T08:19:42.720Z,1.27
2018-09-05T08:22:10.449Z,1.00
2018-09-05T08:24:38.386Z,1.13
2018-09-05T08:27:06.108Z,1.10
2018-09-05T08:29:33.800Z,0.90
2018-09-05T08:32:01.552Z,1.20
2018-09-05T08:34:29.308Z,1.00
2018-09-05T08:36:57.266Z,1.03
2018-09-05T08:39:24.784Z,1.23
2018-09-05T08:41:52.581Z,1.00
2018-09-05T08:44:20.481Z,1.07
2018-09-05T08:46:48.114Z,1.30
2018-09-05T08:49:15.833Z,0.90
2018-09-05T08:51:43.516Z,1.27
2018-09-05T08:54:11.236Z,1.10
2018-09-05T08:56:38.974Z,1.13
2018-09-05T08:59:06.749Z,0.90
2018-09-05T09:01:35.307Z,1.00
2018-09-05T09:04:03.025Z,1.10
2018-09-05T09:06:30.769Z,1.20
2018-09-05T09:08:58.456Z,1.07
2018-09-05T09:11:26.233Z,1.10
2018-09-05T09:13:53.943Z,1.57
2018-09-05T09:16:21.653Z,1.03
2018-09-05T09:18:49.471Z,1.10
2018-09-05T09:21:17.243Z,1.10
2018-09-05T09:23:44.982Z,0.80
2018-09-05T09:26:12.691Z,1.00
2018-09-05T09:28:40.446Z,0.90
2018-09-05T09:31:08.172Z,1.00
2018-09-05T09:33:35.895Z,0.93
2018-09-05T09:36:03.659Z,0.90
2018-09-05T09:38:31.386Z,1.00
2018-09-05T09:40:59.080Z,1.10
2018-09-05T09:43:26.829Z,1.30
2018-09-05T09:45:54.537Z,1.00
2018-09-05T09:48:22.239Z,1.17
2018-09-05T09:50:50.006Z,1.10
2018-09-05T09:53:17.699Z,1.00
2018-09-05T09:55:45.449Z,1.07
2018-09-05T09:58:13.208Z,1.00
2018-09-05T10:00:46.550Z,0.90
2018-09-05T10:03:19.883Z,0.87
2018-09-05T10:05:53.113Z,0.93
2018-09-05T10:08:26.465Z,0.93
2018-09-05T10:10:59.769Z,0.93
2018-09-05T10:13:33.064Z,1.00
2018-09-05T10:16:06.464Z,1.30
2018-09-05T10:18:37.195Z,0.90
2018-09-05T10:21:04.973Z,0.83
2018-09-05T10:23:32.735Z,1.10
2018-09-05T10:26:00.515Z,0.93
2018-09-05T10:28:28.218Z,1.10
2018-09-05T10:30:55.939Z,1.00
2018-09-05T10:33:23.652Z,1.07
2018-09-05T10:35:51.421Z,1.27
2018-09-05T10:38:19.176Z,0.73
2018-09-05T10:40:46.889Z,0.90
2018-09-05T10:43:14.603Z,1.00
2018-09-05T10:45:42.372Z,0.80
2018-09-05T10:48:10.527Z,0.80
2018-09-05T10:50:38.264Z,0.70
2018-09-05T10:53:06.432Z,1.00
2018-09-05T10:55:34.164Z,1.13
2018-09-05T10:58:01.889Z,0.77
2018-09-05T11:00:29.672Z,0.90
2018-09-05T11:02:57.372Z,0.83
2018-09-05T11:05:25.116Z,1.83
2018-09-05T11:07:52.850Z,0.97
2018-09-05T11:10:20.677Z,1.00
2018-09-05T11:12:48.392Z,0.93
2018-09-05T11:15:16.152Z,0.70
2018-09-05T11:17:43.889Z,1.00
2018-09-05T11:20:12.232Z,0.80
2018-09-05T11:22:40.340Z,1.20
2018-09-05T11:25:08.079Z,0.93
2018-09-05T11:27:35.923Z,0.93
2018-09-05T11:30:03.807Z,1.00
2018-09-05T11:32:31.525Z,0.93
2018-09-05T11:34:59.321Z,0.80
2018-09-05T11:37:27.239Z,0.93
2018-09-05T11:39:54.975Z,1.03
2018-09-05T11:42:22.688Z,0.93
2018-09-05T11:44:50.445Z,0.90
2018-09-05T11:47:18.174Z,1.17
2018-09-05T11:49:45.901Z,1.07
2018-09-05T11:52:13.667Z,0.90
2018-09-05T11:54:41.397Z,1.30
2018-09-05T11:57:09.165Z,0.90
2018-09-05T11:59:37.038Z,1.00
2018-09-05T12:02:04.975Z,1.07
2018-09-05T12:04:32.924Z,1.10
2018-09-05T12:07:00.756Z,1.30
2018-09-05T12:09:28.461Z,1.10
2018-09-05T12:11:56.234Z,1.17
2018-09-05T12:14:24.037Z,1.40
2018-09-05T12:16:51.847Z,1.20
2018-09-05T12:19:19.591Z,1.10
2018-09-05T12:21:47.292Z,1.33
2018-09-05T12:24:15.053Z,1.07
2018-09-05T12:26:42.769Z,1.17
2018-09-05T12:29:11.996Z,1.00
2018-09-05T12:31:40.218Z,1.30
2018-09-05T12:34:07.942Z,1.43
2018-09-05T12:36:35.803Z,1.10
2018-09-05T12:39:05.452Z,1.10
2018-09-05T12:41:33.148Z,1.23
2018-09-05T12:44:00.952Z,1.00
2018-09-05T12:46:28.668Z,1.00
2018-09-05T12:48:56.384Z,1.10
2018-09-05T12:51:24.245Z,0.97
2018-09-05T12:53:51.988Z,1.03
2018-09-05T12:56:19.700Z,0.90
2018-09-05T12:58:47.464Z,0.77
2018-09-05T13:01:15.297Z,1.07
2018-09-05T13:03:43.131Z,1.00
2018-09-05T13:06:10.849Z,0.83
2018-09-05T13:08:38.571Z,0.70
2018-09-05T13:11:06.304Z,1.10
2018-09-05T13:13:40.868Z,0.97
2018-09-05T13:16:08.572Z,1.23
2018-09-05T13:18:36.267Z,0.80
2018-09-05T13:21:04.126Z,0.90
2018-09-05T13:23:31.883Z,1.23
2018-09-05T13:25:59.627Z,1.10
2018-09-05T13:28:27.329Z,1.20
2018-09-05T13:30:55.034Z,0.93
2018-09-05T13:33:22.770Z,1.10
2018-09-05T13:35:50.767Z,1.40
2018-09-05T13:38:18.471Z,1.00
2018-09-05T13:40:46.277Z,1.27
2018-09-05T13:43:14.017Z,1.03
2018-09-05T13:45:41.952Z,1.40
2018-09-05T13:48:09.732Z,1.20
2018-09-05T13:50:37.517Z,1.03
2018-09-05T13:53:05.649Z,0.93
2018-09-05T13:55:33.389Z,1.40
2018-09-05T13:58:01.111Z,1.03
2018-09-05T14:00:28.994Z,1.20
2018-09-05T14:02:56.715Z,1.10
2018-09-05T14:05:24.480Z,1.33
2018-09-05T14:07:52.252Z,1.20
2018-09-05T14:10:19.972Z,0.83
2018-09-05T14:12:47.755Z,0.80
2018-09-05T14:15:15.465Z,1.43
2018-09-05T14:17:43.293Z,1.40
2018-09-05T14:20:11.120Z,1.47
2018-09-05T14:22:38.873Z,0.90
2018-09-05T14:25:06.740Z,0.90
2018-09-05T14:27:34.546Z,1.07
2018-09-05T14:30:02.352Z,0.87
2018-09-05T14:32:30.091Z,1.03
2018-09-05T14:34:57.816Z,1.03
2018-09-05T14:37:25.588Z,1.10
2018-09-05T14:39:53.355Z,1.10
2018-09-05T14:42:21.108Z,1.00
2018-09-05T14:44:48.816Z,1.00
2018-09-05T14:47:16.535Z,1.00
2018-09-05T14:49:44.276Z,1.10
2018-09-05T14:52:12.030Z,1.20
2018-09-05T14:54:39.769Z,0.90
2018-09-05T14:57:07.585Z,0.90
2018-09-05T14:59:35.310Z,1.20
2018-09-05T15:02:03.181Z,0.70
2018-09-05T15:04:30.886Z,0.90
2018-09-05T15:06:58.637Z,0.80
2018-09-05T15:09:26.392Z,0.90
2018-09-05T15:11:54.194Z,0.80
2018-09-05T15:14:21.869Z,0.80
2018-09-05T15:16:49.578Z,1.10
2018-09-05T15:19:17.293Z,0.90
2018-09-05T15:21:45.133Z,1.03
2018-09-05T15:24:12.892Z,1.10
2018-09-05T15:26:40.629Z,0.83
2018-09-05T15:29:08.378Z,1.00
2018-09-05T15:31:36.080Z,1.10
2018-09-05T15:34:03.797Z,1.00
2018-09-05T15:36:31.524Z,1.00
2018-09-05T15:38:59.255Z,1.17
2018-09-05T15:41:26.984Z,1.30
2018-09-05T15:43:54.740Z,1.00
2018-09-05T15:46:22.465Z,1.10
2018-09-05T15:48:50.162Z,1.33
2018-09-05T15:51:17.861Z,1.00
2018-09-05T15:53:45.547Z,1.13
2018-09-05T15:56:13.276Z,0.80
2018-09-05T15:58:41.017Z,1.20
2018-09-05T16:01:08.696Z,1.03
2018-09-05T16:03:36.428Z,0.90
2018-09-05T16:06:04.270Z,1.20
2018-09-05T16:08:32.087Z,0.97
2018-09-05T16:10:59.804Z,1.30
2018-09-05T16:13:27.474Z,1.00
2018-09-05T16:15:55.171Z,1.00
2018-09-05T16:18:23.055Z,1.00
2018-09-05T16:20:50.779Z,1.00
2018-09-05T16:23:18.466Z,0.80
2018-09-05T16:25:46.219Z,1.00
2018-09-05T16:28:13.923Z,0.90
2018-09-05T16:30:41.767Z,1.07
2018-09-05T16:33:09.481Z,1.07
2018-09-05T16:35:37.195Z,1.10
2018-09-05T16:38:05.024Z,1.20
2018-09-05T16:40:32.721Z,1.07
2018-09-05T16:43:00.412Z,1.23
2018-09-05T16:45:28.173Z,1.00
2018-09-05T16:47:55.864Z,1.40
2018-09-05T16:50:24.069Z,1.40
2018-09-05T16:52:51.756Z,1.10
2018-09-05T16:55:19.470Z,1.30
2018-09-05T16:57:47.167Z,1.53
2018-09-05T17:00:14.837Z,1.10
2018-09-05T17:02:42.591Z,1.60
2018-09-05T17:05:10.293Z,1.20
2018-09-05T17:07:38.004Z,1.20
2018-09-05T17:10:05.895Z,1.40
2018-09-05T17:12:33.576Z,1.10
2018-09-05T17:15:01.248Z,1.07
2018-09-05T17:17:28.969Z,1.30
2018-09-05T17:19:56.746Z,1.40
2018-09-05T17:22:24.484Z,1.23
2018-09-05T17:24:52.301Z,1.13
2018-09-05T17:27:20.135Z,1.57
2018-09-05T17:29:47.880Z,1.20
2018-09-05T17:32:15.553Z,1.27
2018-09-05T17:34:43.346Z,1.63
2018-09-05T17:37:11.195Z,1.80
2018-09-05T17:39:38.878Z,1.93
2018-09-05T17:42:06.580Z,1.83
2018-09-05T17:44:34.314Z,1.40
2018-09-05T17:47:02.006Z,1.40
2018-09-05T17:49:29.725Z,1.57
2018-09-05T17:51:57.465Z,1.57
2018-09-05T17:54:25.252Z,1.20
2018-09-05T17:56:52.961Z,1.23
2018-09-05T17:59:20.708Z,1.60
2018-09-05T18:01:48.508Z,1.10
2018-09-05T18:04:16.189Z,1.60
2018-09-05T18:06:43.888Z,1.60
2018-09-05T18:09:11.906Z,1.80
2018-09-05T18:11:39.611Z,1.53
2018-09-05T18:14:07.352Z,1.57
2018-09-05T18:16:35.057Z,1.63
2018-09-05T18:19:02.911Z,1.60
2018-09-05T18:21:30.690Z,2.03
2018-09-05T18:23:58.467Z,2.00
2018-09-05T18:26:26.211Z,1.63
2018-09-05T18:28:53.904Z,1.70
2018-09-05T18:31:21.635Z,1.20
2018-09-05T18:33:49.443Z,1.70
2018-09-05T18:36:17.117Z,1.73
2018-09-05T18:38:44.848Z,1.90
2018-09-05T18:41:12.640Z,1.50
2018-09-05T18:43:40.401Z,1.63
2018-09-05T18:46:08.192Z,1.57
2018-09-05T18:48:35.896Z,1.53
2018-09-05T18:51:03.723Z,1.57
2018-09-05T18:53:31.479Z,1.20
2018-09-05T18:55:59.267Z,1.63
2018-09-05T18:58:26.972Z,1.57
2018-09-05T19:00:54.882Z,1.50
2018-09-05T19:03:22.649Z,1.60
2018-09-05T19:05:50.444Z,1.77
2018-09-05T19:08:18.301Z,1.80
2018-09-05T19:10:46.017Z,1.30
2018-09-05T19:13:13.716Z,1.30
2018-09-05T19:15:41.451Z,1.53
2018-09-05T19:18:09.151Z,1.40
2018-09-05T19:20:36.931Z,2.00
2018-09-05T19:23:04.688Z,2.33
2018-09-05T19:25:32.379Z,1.87
2018-09-05T19:28:00.068Z,1.70
2018-09-05T19:30:27.798Z,1.70
2018-09-05T19:32:55.473Z,1.90
2018-09-05T19:35:23.185Z,1.60
2018-09-05T19:37:50.991Z,1.60
2018-09-05T19:40:18.663Z,1.33
2018-09-05T19:42:46.375Z,1.70
2018-09-05T19:45:14.076Z,1.37
2018-09-05T19:47:42.684Z,1.50
2018-09-05T19:50:10.415Z,1.53
2018-09-05T19:52:38.142Z,1.80
2018-09-05T19:55:05.845Z,2.77
2018-09-05T19:57:33.530Z,1.50
2018-09-05T20:00:01.256Z,1.97
2018-09-05T20:02:29.015Z,1.37
2018-09-05T20:04:56.759Z,1.30
2018-09-05T20:07:24.535Z,1.60
2018-09-05T20:09:52.256Z,1.60
2018-09-05T20:12:19.996Z,2.00
2018-09-05T20:14:47.680Z,2.17
2018-09-05T20:17:15.391Z,1.87
2018-09-05T20:19:43.138Z,1.70
2018-09-05T20:22:11.407Z,1.37
2018-09-05T20:24:39.223Z,1.67
2018-09-05T20:27:07.349Z,1.90
2018-09-05T20:29:35.168Z,1.47
2018-09-05T20:32:02.913Z,2.10
2018-09-05T20:34:30.612Z,1.73
2018-09-05T20:36:58.392Z,1.90
2018-09-05T20:39:26.097Z,2.20
2018-09-05T20:41:54.014Z,1.93
2018-09-05T20:44:21.698Z,1.70
2018-09-05T20:46:49.404Z,1.47
2018-09-05T20:49:17.153Z,1.90
2018-09-05T20:51:44.868Z,2.13
2018-09-05T20:54:12.600Z,2.37
2018-09-05T20:56:40.288Z,2.53
2018-09-05T20:59:08.039Z,2.10
2018-09-05T21:01:35.717Z,2.20
2018-09-05T21:04:03.427Z,2.10
2018-09-05T21:06:31.153Z,1.77
2018-09-05T21:08:58.871Z,1.80
2018-09-05T21:11:26.573Z,2.63
2018-09-05T21:13:54.285Z,2.70
2018-09-05T21:16:22.119Z,2.20
2018-09-05T21:18:49.825Z,1.67
2018-09-05T21:21:17.524Z,2.07
2018-09-05T21:23:45.263Z,1.73
2018-09-05T21:26:12.939Z,2.20
2018-09-05T21:28:40.639Z,1.90
2018-09-05T21:31:08.360Z,2.57
2018-09-05T21:33:36.029Z,2.50
2018-09-05T21:36:03.919Z,2.70
2018-09-05T21:38:31.594Z,2.33
2018-09-05T21:40:59.284Z,2.40
2018-09-05T21:43:27.056Z,2.80
2018-09-05T21:45:54.785Z,2.50
2018-09-05T21:48:22.551Z,2.17
2018-09-05T21:50:50.308Z,2.50
2018-09-05T21:53:18.020Z,2.40
2018-09-05T21:55:45.692Z,2.10
2018-09-05T21:58:13.395Z,2.40
2018-09-05T22:00:41.190Z,2.50
2018-09-05T22:03:08.860Z,2.37
2018-09-05T22:05:36.530Z,2.40
2018-09-05T22:08:04.251Z,2.33
2018-09-05T22:10:31.939Z,2.30
2018-09-05T22:12:59.620Z,2.30
2018-09-05T22:15:32.149Z,2.37
2018-09-05T22:17:59.812Z,2.70
2018-09-05T22:20:27.495Z,2.37
2018-09-05T22:22:55.184Z,2.87
2018-09-05T22:25:22.856Z,2.37
2018-09-05T22:27:50.536Z,2.50
2018-09-05T22:30:18.257Z,1.97
2018-09-05T22:32:45.948Z,2.30
2018-09-05T22:35:13.669Z,2.07
2018-09-05T22:37:41.424Z,2.60
2018-09-05T22:40:09.096Z,2.00
2018-09-05T22:42:42.053Z,2.40
2018-09-05T22:45:21.112Z,2.17
2018-09-05T22:48:09.420Z,2.33
2018-09-05T22:52:05.416Z,2.60
2018-09-05T22:55:52.804Z,2.30
2018-09-05T22:58:36.627Z,2.23
2018-09-05T23:01:25.173Z,2.10
2018-09-05T23:05:05.003Z,2.03
2018-09-05T23:07:45.353Z,2.17
2018-09-05T23:10:24.403Z,2.13
2018-09-05T23:13:03.360Z,1.73
2018-09-05T23:15:42.329Z,2.00
2018-09-05T23:18:21.317Z,1.70
2018-09-05T23:21:01.337Z,1.70
2018-09-05T23:23:40.447Z,2.00
2018-09-05T23:26:08.591Z,2.17
2018-09-05T23:28:36.888Z,2.77
2018-09-05T23:31:04.668Z,2.90
2018-09-05T23:33:32.462Z,1.97
2018-09-05T23:36:00.140Z,2.57
2018-09-05T23:38:27.897Z,2.73
2018-09-05T23:40:55.581Z,2.47
2018-09-05T23:43:23.244Z,2.00
2018-09-05T23:45:51.030Z,2.97
2018-09-05T23:48:18.713Z,2.47
2018-09-05T23:50:46.396Z,2.23
2018-09-05T23:53:14.094Z,2.70
2018-09-05T23:55:41.776Z,3.00
2018-09-05T23:58:09.491Z,2.50
